Lakewood, CO

1:17 PM MST on December 22, 2014 (GMT -0700)
Belmar Gardens | Change Station
CLOSE
Current Station
Personal Weather Station
Location: Lakewood, CO
Elevation: 5568 ft
Nearby Weather Stations

Elev 5568 ft 39.70 °N, 105.10 °W | Updated 6 minutes ago

Overcast
Overcast
33.4 °F
Feels Like 33 °F
N
1.0
Wind Variable Wind from NNE
Gusts 9.0 mph

Today
High -- | Low -- °F
--% Chance of Precip.
Yesterday
High -- | Low -- °F
Precip. -- in
7:18 AM 4:39 PM
New Moon, 1% visible
Pressure 29.68 in
Visibility 2.0 miles
Clouds Scattered Clouds 1400 ft
Mostly Cloudy 2100 ft
Overcast 3400 ft
Windchill 33 °F
Dew Point 27 °F
Humidity 78%
Rainfall 0.00 in
Snow Depth Not available.
UV 1 out of 12
Pollen .10 out of 12
Air Quality Not available.
Flu Activity Not available.
SPECI KAPA 222010Z VRB03KT 2SM -SN BR SCT014 BKN021 OVC034 M01/M04 A2968 RMK AO2 PCPN VRY LGT P0000 T10111039

More Conditions Fewer Conditions

Pressure 29.68 in
Visibility 2.0 miles
Clouds Scattered Clouds 1400 ft
Mostly Cloudy 2100 ft
Overcast 3400 ft
Windchill 33 °F
Dew Point 27 °F
Humidity 78%
Rainfall 0.00 in
Snow Depth Not available.
UV 1 out of 12
Pollen .10 out of 12
Air Quality Not available.
Flu Activity Not available.
SPECI KAPA 222010Z VRB03KT 2SM -SN BR SCT014 BKN021 OVC034 M01/M04 A2968 RMK AO2 PCPN VRY LGT P0000 T10111039

More Conditions Fewer Conditions

10-Day Weather Forecast

Almanac

Astronomy

Dec. 22, 2014 Rise Set
Actual Time
Civil Twilight
Nautical Twilight
Astronomical Twilight
Moon
Length of Visible Light
Length of Day
Tomorrow will be .
, % of the Moon is Illuminated

Today's Extremes

State Highs State Lows

Community

WunderPhotos

Upload Photos

1,779,708 photos uploaded!

WunderBlogs® & News

Nearby

Air Quality

  Air Quality AQ Index Pollutant
Not available.

Snow Depth

Station Depth Elevation

Earthquake Activity

City Distance Mag. Time & Date
Minimum magnitude displayed is 2.5.

Coastal Water Temperatures

Place Temperature

Nearby Weather Stations